KLGC/LGC METAR and TAF weather

Enter ICAO airport designator
Station Type Date Time Source
KLGC METAR 2021/09/23 18:35 UTC NOAA

KLGC 231835Z AUTO 01007KT 10SM CLR 21/08 A3003 RMK AO2 T02130077


Station Type Date Time Source
KLGC Decoded METAR 2021/09/23 18:35 UTC NOAA

La Grange, Callaway Airport, GA, United States (KLGC) 33-00-32N 085-04-21W
Sep 23, 2021 - 02:35 PM EDT / 2021.09.23 1835 UTC
Wind: from the N (010 degrees) at 8 MPH (7 KT):0
Visibility: 10 mile(s):0
Sky conditions: clear
Temperature: 70.3 F (21.3 C)
Dew Point: 45.9 F (7.7 C)
Relative Humidity: 41%
Pressure (altimeter): 30.03 in. Hg (1016 hPa)
ob: KLGC 231835Z AUTO 01007KT 10SM CLR 21/08 A3003 RMK AO2 T02130077
cycle: 18

Station Type Date Time Source
KLGC TAF UTC NOAA

Error!

Example: see airport list